Time;durP1;ratioP1;P1;durP2;ratioP2;P2;SDS_P1;SDS_P2;PMS_P1;PMS_P2;Temp;Humidity;BMP_temperature;BMP_pressure;BME280_temperature;BME280_humidity;BME280_pressure;Samples;Min_cycle;Max_cycle;Signal;HPM_P1;HPM_P2
2021/05/06 00:34:21;;;;;;;2.95;1.98;;;;;;;6.27;61.72;98880.59;5070520;28;20032;-70
2021/05/06 00:36:47;;;;;;;3.67;1.80;;;;;;;6.25;61.75;98875.44;5069200;28;20495;-70
2021/05/06 00:39:19;;;;;;;3.47;2.03;;;;;;;6.22;61.97;98875.56;5071101;28;20071;-71
2021/05/06 01:01:32;;;;;;;4.50;1.77;;;;;;;5.90;63.42;98864.78;5048557;28;20641;-69
2021/05/06 01:06:25;;;;;;;6.22;1.95;;;;;;;5.81;63.45;98865.19;5069780;28;20032;-69
2021/05/06 01:08:57;;;;;;;3.45;2.35;;;;;;;5.80;63.68;98859.09;5069537;28;20047;-69
2021/05/06 01:14:18;;;;;;;8.05;2.05;;;;;;;5.74;64.03;98854.16;5040334;28;20033;-70
2021/05/06 01:16:43;;;;;;;4.80;2.10;;;;;;;5.71;64.04;98851.69;5049562;28;20499;-69
2021/05/06 01:19:08;;;;;;;3.38;2.13;;;;;;;5.70;64.05;98846.50;5049453;28;20508;-68
2021/05/06 01:21:34;;;;;;;5.25;2.22;;;;;;;5.67;65.02;98849.28;5077033;28;20032;-69
2021/05/06 01:24:01;;;;;;;5.80;2.53;;;;;;;5.59;64.68;98847.84;5080316;28;20036;-69
2021/05/06 01:26:46;;;;;;;4.75;2.22;;;;;;;5.56;65.26;98850.59;5051902;28;20060;-69
2021/05/06 01:29:20;;;;;;;7.32;2.35;;;;;;;5.55;65.25;98846.28;5069754;28;20047;-69
2021/05/06 01:31:54;;;;;;;2.90;1.80;;;;;;;5.51;65.68;98834.28;5069758;28;20807;-69
2021/05/06 01:34:23;;;;;;;5.80;2.20;;;;;;;5.53;65.40;98842.03;5069630;28;20028;-69
2021/05/06 01:36:54;;;;;;;4.40;1.88;;;;;;;5.54;65.19;98838.50;5069370;28;20043;-69
2021/05/06 01:42:17;;;;;;;7.07;3.33;;;;;;;5.45;65.70;98833.69;5069080;28;20043;-69
2021/05/06 01:47:56;;;;;;;3.58;2.10;;;;;;;5.48;66.18;98828.31;5007217;28;20144;-70
2021/05/06 01:58:35;;;;;;;3.83;2.28;;;;;;;5.68;65.06;98840.50;5062006;28;20035;-69
2021/05/06 02:01:04;;;;;;;7.93;2.80;;;;;;;5.72;65.12;98840.28;5069338;28;20496;-69
2021/05/06 02:03:29;;;;;;;5.55;2.75;;;;;;;5.75;64.98;98840.16;5062524;28;20136;-69
2021/05/06 02:05:55;;;;;;;5.07;2.13;;;;;;;5.75;65.22;98834.91;5060862;28;20120;-68
2021/05/06 02:08:21;;;;;;;9.20;2.78;;;;;;;5.71;65.26;98828.16;5065696;28;20041;-68
2021/05/06 02:10:47;;;;;;;6.18;3.10;;;;;;;5.68;65.23;98830.88;5070187;28;20159;-69
2021/05/06 02:13:15;;;;;;;5.15;2.50;;;;;;;5.67;64.96;98834.44;5069364;28;20535;-68
2021/05/06 02:15:43;;;;;;;5.10;2.58;;;;;;;5.63;65.26;98835.47;5069846;28;20388;-69
2021/05/06 02:18:09;;;;;;;7.85;2.00;;;;;;;5.64;64.89;98828.50;5073180;28;20492;-68
2021/05/06 02:20:35;;;;;;;4.13;2.40;;;;;;;5.65;65.68;98823.19;5037519;28;20033;-68
2021/05/06 02:23:03;;;;;;;8.38;4.22;;;;;;;5.63;65.18;98832.84;5049802;28;20404;-68
2021/05/06 02:25:29;;;;;;;7.22;2.55;;;;;;;5.58;65.69;98827.81;5049532;28;20634;-69
2021/05/06 02:27:54;;;;;;;5.95;2.33;;;;;;;5.61;65.71;98826.84;5049377;28;20128;-68
2021/05/06 02:30:19;;;;;;;5.13;2.25;;;;;;;5.61;65.50;98826.84;5050343;28;20112;-68
2021/05/06 02:32:45;;;;;;;7.82;2.67;;;;;;;5.58;65.67;98817.38;5031523;28;20619;-69
2021/05/06 02:35:11;;;;;;;8.80;2.63;;;;;;;5.59;65.63;98821.69;5049099;28;20059;-68
2021/05/06 02:37:36;;;;;;;6.22;2.40;;;;;;;5.58;65.86;98826.97;5069810;28;20114;-70
2021/05/06 02:40:04;;;;;;;6.10;2.63;;;;;;;5.59;65.64;98823.47;5052188;28;20036;-68
2021/05/06 02:42:29;;;;;;;6.25;2.80;;;;;;;5.61;65.81;98826.84;5068817;28;20407;-68
2021/05/06 02:44:54;;;;;;;5.18;2.83;;;;;;;5.57;65.59;98815.69;5069603;28;20040;-68
2021/05/06 02:47:20;;;;;;;6.90;2.63;;;;;;;5.57;65.79;98823.53;5069234;28;20036;-68
2021/05/06 02:49:47;;;;;;;3.58;2.33;;;;;;;5.53;65.82;98808.03;5051006;28;20032;-69
2021/05/06 02:52:38;;;;;;;6.35;3.13;;;;;;;5.53;66.35;98802.81;5051526;28;20040;-68
2021/05/06 02:57:43;;;;;;;8.30;2.85;;;;;;;5.43;66.23;98797.16;5068440;28;20025;-70
2021/05/06 03:02:56;;;;;;;11.82;3.38;;;;;;;5.36;66.64;98800.94;5068312;28;20664;-70
2021/05/06 03:05:25;;;;;;;11.23;3.83;;;;;;;5.35;66.30;98807.09;5068743;28;20025;-70
2021/05/06 03:08:16;;;;;;;6.30;2.95;;;;;;;5.33;66.57;98796.69;5050427;28;20147;-69
2021/05/06 03:10:47;;;;;;;6.03;2.70;;;;;;;5.34;66.32;98795.81;5067292;28;20032;-70
2021/05/06 03:23:39;;;;;;;9.13;3.47;;;;;;;5.37;66.58;98792.19;5069058;28;20107;-69
2021/05/06 03:26:04;;;;;;;7.63;2.70;;;;;;;5.38;66.23;98786.03;5072067;28;20029;-70
2021/05/06 03:28:38;;;;;;;11.13;2.55;;;;;;;5.38;66.01;98792.13;5071800;28;20535;-70
2021/05/06 03:41:54;;;;;;;7.43;3.22;;;;;;;5.42;66.42;98778.94;5056649;28;20395;-69
2021/05/06 03:49:47;;;;;;;10.80;3.00;;;;;;;5.46;66.20;98780.47;5072129;28;20094;-69
2021/05/06 04:16:50;;;;;;;6.60;2.22;;;;;;;5.67;65.42;98784.75;5072126;28;20101;-69
2021/05/06 04:37:38;;;;;;;5.13;2.75;;;;;;;5.67;65.47;98810.91;5071158;28;20534;-70
2021/05/06 04:55:59;;;;;;;6.13;2.47;;;;;;;5.70;65.32;98804.69;5070969;28;20086;-68
2021/05/06 04:59:17;;;;;;;10.55;3.95;;;;;;;5.69;65.84;98793.38;5070768;28;20036;-69
2021/05/06 05:06:32;;;;;;;9.88;3.58;;;;;;;5.72;65.29;98801.06;5070612;28;20052;-69
2021/05/06 05:11:54;;;;;;;4.40;2.20;;;;;;;5.75;64.89;98797.47;5070983;28;20096;-69
2021/05/06 05:24:57;;;;;;;6.97;3.30;;;;;;;5.86;65.11;98799.59;5078357;28;20515;-68
2021/05/06 05:27:23;;;;;;;7.95;4.07;;;;;;;5.87;64.75;98799.53;5069613;28;20034;-68
2021/05/06 05:29:51;;;;;;;6.07;2.90;;;;;;;5.95;64.84;98807.06;5070519;28;20040;-68
2021/05/06 05:32:17;;;;;;;11.48;3.40;;;;;;;5.97;64.08;98806.06;5069737;28;20494;-70
2021/05/06 05:34:45;;;;;;;8.07;2.60;;;;;;;6.02;64.64;98809.31;5069627;28;20042;-70
2021/05/06 05:37:17;;;;;;;9.50;3.13;;;;;;;6.10;63.59;98805.50;5070133;28;20043;-70
2021/05/06 05:45:35;;;;;;;5.35;3.30;;;;;;;6.35;62.82;98799.94;5069844;28;20492;-69
2021/05/06 05:56:05;;;;;;;5.63;2.80;;;;;;;6.80;62.33;98806.50;5053934;28;20044;-69
2021/05/06 05:58:30;;;;;;;8.52;2.75;;;;;;;6.93;61.74;98807.56;5051449;28;20033;-69
2021/05/06 06:00:56;;;;;;;8.98;2.95;;;;;;;7.13;61.29;98800.47;5069406;28;20039;-70
2021/05/06 06:03:21;;;;;;;5.90;2.63;;;;;;;7.28;60.77;98794.44;5069881;28;20058;-71
2021/05/06 06:05:47;;;;;;;12.25;3.67;;;;;;;7.31;60.86;98786.44;5067898;28;20032;-70
2021/05/06 06:08:12;;;;;;;10.38;4.22;;;;;;;7.59;59.98;98791.06;5069330;28;20037;-71
2021/05/06 06:10:38;;;;;;;10.20;2.95;;;;;;;7.81;59.23;98782.91;5051340;28;20546;-70
2021/05/06 06:13:03;;;;;;;7.28;2.92;;;;;;;7.70;59.01;98780.88;5070157;28;20036;-69
2021/05/06 06:18:12;;;;;;;7.95;3.75;;;;;;;8.06;58.19;98786.81;5089078;28;20040;-69
2021/05/06 06:20:40;;;;;;;5.72;2.95;;;;;;;8.23;57.75;98785.88;5070941;28;20105;-64
2021/05/06 06:23:05;;;;;;;10.43;2.75;;;;;;;8.33;57.39;98785.28;5064382;28;20093;-62
2021/05/06 06:25:31;;;;;;;7.30;3.30;;;;;;;8.30;57.01;98785.44;5050281;28;20145;-64
2021/05/06 06:27:56;;;;;;;5.20;2.65;;;;;;;8.47;57.02;98788.94;5068082;28;20091;-63
2021/05/06 06:30:22;;;;;;;8.65;3.35;;;;;;;8.68;55.92;98786.88;5069842;28;20029;-62
2021/05/06 06:32:49;;;;;;;3.38;2.33;;;;;;;8.87;55.62;98795.38;5050949;28;20037;-63
2021/05/06 06:35:14;;;;;;;9.38;3.80;;;;;;;8.86;55.61;98790.19;5045064;28;20052;-62
2021/05/06 06:37:40;;;;;;;4.13;2.63;;;;;;;9.18;54.28;98791.81;5048750;28;20500;-61
2021/05/06 06:40:06;;;;;;;5.95;2.85;;;;;;;9.24;53.88;98794.06;5050032;28;20037;-61
2021/05/06 06:42:32;;;;;;;7.30;3.15;;;;;;;9.45;54.20;98798.94;5036541;28;20109;-61
2021/05/06 06:44:58;;;;;;;9.68;3.15;;;;;;;9.38;53.89;98795.03;5064105;28;20068;-62
2021/05/06 06:47:23;;;;;;;9.20;2.83;;;;;;;9.55;53.92;98788.72;5062857;28;20056;-63
2021/05/06 06:49:48;;;;;;;5.53;2.78;;;;;;;9.57;53.40;98789.47;5074377;28;20368;-63
2021/05/06 06:52:14;;;;;;;6.25;2.85;;;;;;;9.71;52.94;98786.00;5065409;28;20120;-61
2021/05/06 06:54:40;;;;;;;8.63;2.75;;;;;;;10.07;51.61;98778.44;5072475;28;20040;-61
2021/05/06 06:57:08;;;;;;;7.10;3.42;;;;;;;10.42;50.61;98780.63;5066333;28;20048;-63
2021/05/06 06:59:33;;;;;;;5.68;3.20;;;;;;;10.79;50.74;98772.13;5066324;28;20028;-63
2021/05/06 07:01:59;;;;;;;6.63;2.92;;;;;;;10.48;50.77;98774.09;5057104;28;20044;-64
2021/05/06 07:04:24;;;;;;;10.50;3.85;;;;;;;10.10;51.52;98778.25;5066934;28;20051;-64
2021/05/06 07:06:50;;;;;;;9.23;3.10;;;;;;;10.32;50.54;98774.28;5065824;28;20234;-61
2021/05/06 07:09:15;;;;;;;7.07;3.22;;;;;;;10.22;51.16;98767.88;5060514;28;20037;-63
2021/05/06 07:11:40;;;;;;;11.80;3.30;;;;;;;10.69;50.55;98771.88;5045837;28;20493;-64
2021/05/06 07:14:06;;;;;;;6.57;3.20;;;;;;;10.22;51.09;98766.09;5059553;28;20075;-64
2021/05/06 07:16:32;;;;;;;4.93;2.63;;;;;;;10.35;50.42;98765.31;5066560;28;20055;-63
2021/05/06 07:18:58;;;;;;;9.05;3.03;;;;;;;10.55;49.99;98758.75;5066670;28;20028;-63
2021/05/06 07:21:25;;;;;;;6.63;3.65;;;;;;;10.72;49.33;98756.69;5049374;28;20130;-63
2021/05/06 07:23:54;;;;;;;3.80;2.53;;;;;;;10.76;49.42;98761.78;5065811;28;20032;-63
2021/05/06 07:26:26;;;;;;;6.72;3.00;;;;;;;10.72;49.44;98761.13;5065950;28;20033;-63
2021/05/06 07:28:53;;;;;;;13.25;3.47;;;;;;;10.65;50.30;98758.03;5067510;28;20048;-64
2021/05/06 07:31:20;;;;;;;11.32;4.28;;;;;;;11.23;48.65;98758.56;5048274;28;20047;-64
2021/05/06 07:33:47;;;;;;;7.18;3.53;;;;;;;11.07;48.92;98755.28;5064736;28;20102;-65
2021/05/06 07:36:14;;;;;;;9.73;4.32;;;;;;;10.78;47.34;98763.38;5065673;28;20044;-64
2021/05/06 07:38:39;;;;;;;9.65;4.25;;;;;;;10.41;48.36;98757.00;5066640;28;20061;-63
2021/05/06 07:41:05;;;;;;;5.68;2.40;;;;;;;10.16;49.53;98760.34;5066064;28;20415;-62
2021/05/06 07:43:31;;;;;;;11.48;3.20;;;;;;;10.29;49.49;98763.94;5059506;28;20037;-62
2021/05/06 07:45:57;;;;;;;7.47;3.35;;;;;;;10.40;49.07;98757.97;5065334;28;20392;-62
2021/05/06 07:48:23;;;;;;;5.30;2.92;;;;;;;10.86;47.34;98755.78;5066626;28;20045;-61
2021/05/06 07:50:49;;;;;;;8.10;2.70;;;;;;;11.26;45.71;98747.78;5056173;28;20067;-63
2021/05/06 07:53:15;;;;;;;5.30;3.00;;;;;;;11.55;44.86;98743.13;5052102;28;20451;-63
2021/05/06 07:55:41;;;;;;;3.22;2.70;;;;;;;11.90;44.14;98742.47;5044466;28;20032;-62
2021/05/06 07:58:07;;;;;;;7.88;3.30;;;;;;;12.21;43.17;98749.03;5051857;28;20041;-62
2021/05/06 08:00:35;;;;;;;6.28;3.50;;;;;;;12.60;41.96;98748.84;5062877;28;20119;-61
2021/05/06 08:03:00;;;;;;;8.23;3.05;;;;;;;13.42;40.94;98748.88;5064910;28;20036;-61
2021/05/06 08:05:26;;;;;;;10.02;3.60;;;;;;;14.07;39.56;98739.31;5063286;28;20040;-62
2021/05/06 08:07:51;;;;;;;6.97;2.65;;;;;;;13.88;38.41;98737.28;5059773;28;20055;-61
2021/05/06 08:10:18;;;;;;;4.28;2.60;;;;;;;14.03;38.49;98729.91;5062653;28;20059;-62
2021/05/06 08:12:44;;;;;;;5.07;3.08;;;;;;;14.30;38.52;98737.44;5054441;28;20061;-64
2021/05/06 08:15:10;;;;;;;14.35;4.20;;;;;;;14.13;38.64;98730.88;5064870;28;20047;-63
2021/05/06 08:17:38;;;;;;;10.80;3.50;;;;;;;14.47;37.70;98725.47;5065605;28;20032;-62
2021/05/06 08:20:06;;;;;;;5.35;2.92;;;;;;;14.95;36.66;98725.88;5065240;28;20048;-62
2021/05/06 08:22:32;;;;;;;6.07;2.63;;;;;;;14.74;37.35;98725.00;5062133;28;20048;-63
2021/05/06 08:24:57;;;;;;;8.45;3.28;;;;;;;14.73;36.82;98720.69;5061389;28;20045;-63
2021/05/06 08:27:23;;;;;;;11.98;4.43;;;;;;;15.01;36.58;98709.44;5064792;28;20052;-63
2021/05/06 08:29:48;;;;;;;11.02;3.40;;;;;;;15.14;35.43;98713.72;5064969;28;20040;-63
2021/05/06 08:32:14;;;;;;;8.15;3.10;;;;;;;14.67;35.67;98700.84;5066328;28;20090;-62
2021/05/06 08:34:39;;;;;;;6.57;2.92;;;;;;;14.91;35.60;98700.56;5067216;28;20055;-60
2021/05/06 08:37:05;;;;;;;3.63;2.22;;;;;;;15.17;35.34;98693.03;5050800;28;20045;-62
2021/05/06 08:39:30;;;;;;;4.68;2.38;;;;;;;15.53;33.94;98689.97;5045869;28;20496;-62
2021/05/06 08:41:59;;;;;;;3.28;2.05;;;;;;;15.95;33.08;98692.50;5046467;28;20033;-63
2021/05/06 08:44:29;;;;;;;3.42;1.85;;;;;;;15.72;33.37;98691.91;5046978;28;20033;-63
2021/05/06 08:47:12;;;;;;;12.48;2.70;;;;;;;14.91;34.87;98692.59;5052849;28;20444;-63
2021/05/06 08:49:38;;;;;;;6.97;2.75;;;;;;;14.71;34.54;98693.44;5058219;28;20075;-63
2021/05/06 08:52:06;;;;;;;9.98;3.17;;;;;;;15.13;34.62;98688.97;5052053;28;20380;-62
2021/05/06 08:54:32;;;;;;;4.47;2.35;;;;;;;14.42;34.97;98696.66;5065744;28;20496;-62
2021/05/06 08:56:59;;;;;;;8.93;3.47;;;;;;;14.66;35.16;98698.28;5066402;28;20062;-62
2021/05/06 08:59:25;;;;;;;11.23;2.85;;;;;;;15.16;33.92;98702.00;5067075;28;20717;-63
2021/05/06 09:01:52;;;;;;;5.40;2.40;;;;;;;15.42;32.88;98699.72;5065141;28;20098;-63
2021/05/06 09:04:19;;;;;;;4.20;2.08;;;;;;;15.32;33.21;98705.97;5068597;28;20136;-62
2021/05/06 09:06:59;;;;;;;3.35;2.35;;;;;;;15.48;32.10;98700.16;5060795;28;20036;-63
2021/05/06 09:09:26;;;;;;;4.57;2.47;;;;;;;15.67;32.55;98700.25;5048477;28;20123;-63
2021/05/06 09:11:53;;;;;;;3.72;2.47;;;;;;;15.55;32.39;98698.66;5066498;28;20461;-62
2021/05/06 09:14:19;;;;;;;6.10;1.73;;;;;;;14.72;33.37;98690.66;5086440;28;20056;-63
2021/05/06 09:16:45;;;;;;;4.45;2.75;;;;;;;14.86;33.47;98699.28;5085540;28;20062;-61
2021/05/06 09:19:24;;;;;;;9.57;3.25;;;;;;;15.37;33.05;98683.34;5084861;28;20040;-61
2021/05/06 09:21:49;;;;;;;6.13;2.10;;;;;;;15.42;32.34;98697.06;5074894;28;20115;-62
2021/05/06 09:24:24;;;;;;;8.13;3.55;;;;;;;15.61;32.07;98677.72;5043430;28;20584;-60
2021/05/06 09:27:01;;;;;;;4.72;2.22;;;;;;;15.76;32.04;98680.03;5064484;28;20569;-62
2021/05/06 09:29:41;;;;;;;5.85;3.00;;;;;;;16.52;31.08;98678.44;5064572;28;20133;-62
2021/05/06 09:32:15;;;;;;;3.90;2.70;;;;;;;16.94;30.19;98670.16;5063085;28;20050;-60
2021/05/06 09:34:42;;;;;;;4.75;2.63;;;;;;;17.61;29.16;98672.75;5065508;28;20037;-62
2021/05/06 09:37:08;;;;;;;5.07;2.65;;;;;;;16.94;29.49;98670.16;5063223;28;20127;-62
2021/05/06 09:39:37;;;;;;;4.90;3.13;;;;;;;16.98;29.38;98669.88;5062844;28;20065;-64
2021/05/06 09:42:08;;;;;;;5.68;3.08;;;;;;;17.63;28.71;98659.28;5058665;28;20043;-63
2021/05/06 09:44:55;;;;;;;6.70;3.38;;;;;;;17.03;29.16;98656.97;5046231;28;20782;-71
2021/05/06 09:47:20;;;;;;;6.00;3.25;;;;;;;16.65;29.86;98653.38;5045484;28;20036;-72
2021/05/06 09:49:48;;;;;;;5.18;2.40;;;;;;;16.26;29.99;98654.22;5064788;28;20028;-69
2021/05/06 09:52:13;;;;;;;2.83;2.13;;;;;;;16.01;30.60;98655.59;5064269;28;20036;-69
2021/05/06 09:54:53;;;;;;;4.63;2.53;;;;;;;17.23;29.07;98647.09;5045836;28;20040;-70
2021/05/06 09:57:30;;;;;;;3.35;2.13;;;;;;;17.10;28.01;98650.06;5044695;28;20063;-69
2021/05/06 10:00:16;;;;;;;3.67;1.85;;;;;;;16.03;29.79;98643.00;5068493;28;20095;-69
2021/05/06 10:02:42;;;;;;;11.07;2.92;;;;;;;15.61;30.88;98645.84;5079424;28;20062;-70
2021/05/06 10:05:10;;;;;;;30.20;4.97;;;;;;;16.89;29.36;98640.47;5082153;28;20034;-69
2021/05/06 10:07:36;;;;;;;5.03;2.60;;;;;;;17.21;27.23;98636.59;5062184;28;20029;-69
2021/05/06 10:10:06;;;;;;;3.67;2.10;;;;;;;16.84;28.13;98626.75;5063126;28;20098;-68
2021/05/06 10:12:37;;;;;;;3.63;2.00;;;;;;;16.04;29.45;98626.06;5063766;28;20033;-69
2021/05/06 10:15:06;;;;;;;3.83;1.67;;;;;;;15.74;28.91;98627.00;5062806;28;20074;-69
2021/05/06 10:17:32;;;;;;;7.10;2.03;;;;;;;15.63;30.20;98624.47;5064745;28;20089;-69
2021/05/06 10:19:58;;;;;;;3.40;2.15;;;;;;;15.28;30.94;98627.53;5062960;28;20032;-69
2021/05/06 10:22:26;;;;;;;2.88;1.90;;;;;;;15.50;30.76;98626.50;5070342;28;20039;-70
2021/05/06 10:24:53;;;;;;;4.25;2.13;;;;;;;15.15;31.26;98625.13;5063903;28;20066;-69
2021/05/06 10:27:26;;;;;;;4.47;2.17;;;;;;;14.61;30.95;98632.34;5071471;28;20040;-70
2021/05/06 10:29:57;;;;;;;5.53;2.40;;;;;;;14.33;32.18;98633.81;5060430;28;20626;-69
2021/05/06 10:32:24;;;;;;;5.20;2.60;;;;;;;13.76;34.18;98627.88;5043514;28;20049;-70
2021/05/06 10:34:55;;;;;;;8.82;2.53;;;;;;;13.75;34.48;98624.34;5046253;28;20063;-71
2021/05/06 10:37:29;;;;;;;5.38;2.75;;;;;;;13.82;34.07;98623.88;5041884;28;20112;-70
2021/05/06 10:39:55;;;;;;;4.53;2.83;;;;;;;14.22;33.97;98615.28;5051802;28;20040;-69
2021/05/06 10:42:32;;;;;;;7.75;3.20;;;;;;;14.13;34.08;98620.41;5047005;28;20539;-70
2021/05/06 10:45:02;;;;;;;25.38;3.58;;;;;;;13.77;35.32;98626.91;5029954;28;20665;-69
2021/05/06 10:47:43;;;;;;;3.97;2.33;;;;;;;14.01;34.08;98609.97;5048218;28;20510;-68
2021/05/06 10:50:10;;;;;;;11.35;3.03;;;;;;;14.11;34.29;98602.94;5047320;28;20455;-69
2021/05/06 10:52:37;;;;;;;4.97;1.85;;;;;;;13.95;35.01;98596.25;5047309;28;20043;-69
2021/05/06 10:55:03;;;;;;;4.25;2.17;;;;;;;13.69;34.86;98597.53;5065025;28;20040;-68
2021/05/06 10:57:34;;;;;;;5.30;2.42;;;;;;;13.68;35.02;98594.06;5063130;28;20040;-68
2021/05/06 11:00:00;;;;;;;8.43;2.38;;;;;;;13.72;35.16;98592.00;5059249;28;20072;-69
2021/05/06 11:02:42;;;;;;;6.05;3.22;;;;;;;13.62;34.10;98591.91;5061408;28;20036;-68
2021/05/06 11:05:22;;;;;;;6.30;2.47;;;;;;;13.65;34.20;98585.50;5055905;28;20115;-70
2021/05/06 11:08:03;;;;;;;14.43;3.50;;;;;;;13.48;35.80;98576.28;5054057;28;20102;-70
2021/05/06 11:10:29;;;;;;;4.15;2.42;;;;;;;13.52;35.51;98581.22;5066900;28;20573;-70
2021/05/06 11:12:57;;;;;;;12.73;2.67;;;;;;;13.62;35.31;98580.47;5068204;28;20064;-70
2021/05/06 11:15:25;;;;;;;5.45;2.53;;;;;;;13.58;35.48;98571.09;5064080;28;20036;-69
2021/05/06 11:17:51;;;;;;;12.13;2.95;;;;;;;13.37;36.66;98565.72;5067282;28;20065;-71
2021/05/06 11:20:16;;;;;;;5.97;2.35;;;;;;;13.45;35.63;98573.88;5067209;28;20037;-71
2021/05/06 11:22:48;;;;;;;9.40;3.55;;;;;;;13.52;36.23;98564.47;5067037;28;20578;-71
2021/05/06 11:27:58;;;;;;;6.63;2.53;;;;;;;13.47;36.00;98556.06;5066491;28;20511;-72
2021/05/06 11:30:44;;;;;;;17.00;4.20;;;;;;;13.37;36.12;98558.63;5048096;28;20044;-69
2021/05/06 11:33:18;;;;;;;5.65;2.58;;;;;;;13.18;36.84;98542.50;5065899;28;20500;-70
2021/05/06 11:35:52;;;;;;;10.57;2.35;;;;;;;13.04;37.64;98541.81;5063205;28;20412;-71
2021/05/06 11:38:18;;;;;;;8.88;3.10;;;;;;;13.07;36.64;98538.91;5058285;28;20031;-71
2021/05/06 11:40:43;;;;;;;16.65;3.65;;;;;;;12.98;37.55;98539.63;5067272;28;20460;-70
2021/05/06 11:43:09;;;;;;;12.18;3.50;;;;;;;13.07;36.94;98538.91;5065999;28;20096;-70
2021/05/06 11:45:37;;;;;;;5.38;2.72;;;;;;;13.16;36.79;98528.53;5065962;28;20035;-69
2021/05/06 11:48:03;;;;;;;3.70;1.98;;;;;;;13.17;35.92;98527.56;5066002;28;20064;-70
2021/05/06 11:50:32;;;;;;;10.18;2.75;;;;;;;13.30;35.92;98523.03;5066386;28;20099;-70
2021/05/06 11:53:00;;;;;;;35.28;6.50;;;;;;;13.36;37.59;98526.97;5065180;28;20033;-71
2021/05/06 11:55:35;;;;;;;13.40;3.35;;;;;;;13.52;35.83;98515.00;5065967;28;20069;-70
2021/05/06 11:58:00;;;;;;;5.60;2.35;;;;;;;13.40;35.72;98518.66;5047567;28;20040;-70
2021/05/06 12:00:31;;;;;;;7.97;3.17;;;;;;;13.31;35.99;98508.81;5066452;28;20036;-70
2021/05/06 12:02:58;;;;;;;4.68;2.47;;;;;;;13.25;36.14;98504.81;5081701;28;20044;-69
2021/05/06 12:05:24;;;;;;;30.13;4.50;;;;;;;13.39;35.72;98505.53;5066721;28;20036;-70
2021/05/06 12:08:08;;;;;;;37.58;7.47;;;;;;;13.58;36.35;98504.88;5066661;28;20510;-71
2021/05/06 12:10:39;;;;;;;7.28;2.47;;;;;;;13.61;36.12;98501.97;5067003;28;20555;-69
2021/05/06 12:13:05;;;;;;;7.68;2.53;;;;;;;13.44;35.89;98503.38;5066987;28;20059;-69
2021/05/06 12:15:30;;;;;;;9.35;2.45;;;;;;;13.55;35.95;98507.78;5067499;28;20052;-70
2021/05/06 12:18:18;;;;;;;7.32;2.95;;;;;;;13.63;35.91;98500.03;5066782;28;20035;-69
2021/05/06 12:20:57;;;;;;;4.88;2.10;;;;;;;13.68;35.84;98489.91;5062943;28;20063;-71
2021/05/06 12:23:25;;;;;;;5.65;2.67;;;;;;;13.77;36.01;98483.03;5067586;28;20083;-70
2021/05/06 12:25:51;;;;;;;3.55;2.20;;;;;;;13.75;36.12;98485.78;5082020;28;20043;-69
2021/05/06 12:28:17;;;;;;;9.07;2.90;;;;;;;13.49;36.32;98475.56;5085957;28;20052;-69
2021/05/06 12:30:43;;;;;;;4.40;1.83;;;;;;;13.27;36.21;98479.13;5075143;28;20407;-69
2021/05/06 12:33:08;;;;;;;8.88;2.67;;;;;;;13.40;36.52;98472.81;5065351;28;20040;-68
2021/05/06 12:35:51;;;;;;;5.05;2.67;;;;;;;13.46;36.15;98465.22;5065471;28;20037;-70
2021/05/06 12:38:17;;;;;;;8.20;3.03;;;;;;;13.28;36.60;98469.38;5053030;28;20029;-71
2021/05/06 12:40:43;;;;;;;6.15;2.53;;;;;;;13.10;38.28;98469.03;5026928;28;20063;-69
2021/05/06 12:43:27;;;;;;;5.78;2.58;;;;;;;13.14;38.59;98472.25;5057702;28;20071;-68
2021/05/06 12:45:59;;;;;;;10.20;2.42;;;;;;;12.98;38.05;98468.19;5064721;28;20557;-71
2021/05/06 12:48:41;;;;;;;21.52;3.28;;;;;;;12.96;39.07;98462.19;5045309;28;20396;-70
2021/05/06 12:51:07;;;;;;;6.70;2.78;;;;;;;12.77;38.91;98457.53;5044671;28;20025;-67
2021/05/06 12:53:34;;;;;;;7.07;2.65;;;;;;;12.75;38.92;98461.25;5044320;28;20059;-69
2021/05/06 12:55:59;;;;;;;6.55;2.65;;;;;;;12.63;38.49;98463.09;5064295;28;20759;-70
2021/05/06 12:58:29;;;;;;;5.38;2.00;;;;;;;12.48;38.65;98467.78;5064760;28;20121;-72
2021/05/06 13:00:58;;;;;;;5.82;2.10;;;;;;;12.71;38.25;98468.59;5063813;28;20056;-70
2021/05/06 13:03:26;;;;;;;6.55;2.22;;;;;;;12.90;37.66;98468.00;5044806;28;20098;-69
2021/05/06 13:05:52;;;;;;;10.73;2.33;;;;;;;12.60;39.06;98466.81;5045055;28;20041;-70
2021/05/06 13:08:17;;;;;;;8.10;2.45;;;;;;;12.53;39.45;98472.69;5045176;28;20037;-69
2021/05/06 13:10:45;;;;;;;4.15;2.33;;;;;;;12.51;40.63;98472.81;5044896;28;20037;-70
2021/05/06 13:13:31;;;;;;;9.10;2.63;;;;;;;12.41;40.41;98469.22;5044777;28;20763;-69
2021/05/06 13:15:57;;;;;;;9.23;2.80;;;;;;;12.32;42.10;98473.41;5044330;28;20377;-68
2021/05/06 13:18:22;;;;;;;7.13;2.47;;;;;;;12.28;43.41;98463.19;5026357;28;20103;-67
2021/05/06 13:20:48;;;;;;;8.27;2.95;;;;;;;12.10;43.62;98458.34;5044793;28;20169;-69
2021/05/06 13:23:26;;;;;;;6.22;2.67;;;;;;;11.99;45.40;98463.63;5045090;28;20040;-69
2021/05/06 13:25:54;;;;;;;5.70;2.97;;;;;;;11.83;47.57;98458.63;5054911;28;20044;-69
2021/05/06 13:28:28;;;;;;;6.72;2.75;;;;;;;11.76;48.69;98465.31;5063074;28;20051;-69
2021/05/06 13:31:07;;;;;;;5.05;2.53;;;;;;;11.59;47.97;98461.31;5063930;28;20154;-70
2021/05/06 13:33:33;;;;;;;11.32;3.78;;;;;;;11.52;49.47;98462.75;5063726;28;20044;-70
2021/05/06 13:36:06;;;;;;;6.75;3.10;;;;;;;11.45;49.75;98453.59;5064341;28;20086;-70
2021/05/06 13:38:58;;;;;;;6.97;3.03;;;;;;;11.30;50.93;98460.84;5063362;28;20079;-69
2021/05/06 13:41:34;;;;;;;4.78;2.63;;;;;;;11.20;52.10;98455.41;5053483;28;20465;-70
2021/05/06 13:44:01;;;;;;;6.47;3.05;;;;;;;11.21;52.04;98458.88;5062351;28;20149;-71
2021/05/06 13:46:29;;;;;;;5.72;3.53;;;;;;;11.13;52.23;98465.56;5063214;28;20493;-70
2021/05/06 13:48:55;;;;;;;4.90;2.85;;;;;;;11.05;54.10;98459.13;5063352;28;20045;-69
2021/05/06 13:51:24;;;;;;;10.82;2.78;;;;;;;11.04;55.56;98465.38;5063855;28;20046;-68
2021/05/06 13:53:50;;;;;;;7.32;2.97;;;;;;;10.98;54.45;98457.91;5063847;28;20037;-70
2021/05/06 13:56:16;;;;;;;7.53;2.92;;;;;;;10.96;54.18;98452.75;5061071;28;20048;-68
2021/05/06 13:58:42;;;;;;;5.25;2.67;;;;;;;10.90;54.48;98448.78;5042729;28;20059;-69
2021/05/06 14:01:09;;;;;;;7.18;3.10;;;;;;;10.87;54.74;98446.34;5044385;28;20036;-69
2021/05/06 14:03:35;;;;;;;18.23;4.07;;;;;;;10.89;56.90;98444.44;5046850;28;20032;-70
2021/05/06 14:06:02;;;;;;;5.47;2.88;;;;;;;10.73;53.26;98443.84;5056698;28;20048;-72
2021/05/06 14:08:27;;;;;;;9.23;3.03;;;;;;;10.64;54.10;98440.09;5045203;28;20040;-69
2021/05/06 14:10:53;;;;;;;5.55;2.85;;;;;;;10.58;55.74;98435.22;5064089;28;20036;-69
2021/05/06 14:13:19;;;;;;;8.30;3.15;;;;;;;10.57;56.76;98432.72;5063905;28;20033;-69
2021/05/06 14:15:45;;;;;;;7.18;2.83;;;;;;;10.61;57.05;98434.16;5063153;28;20051;-70
2021/05/06 14:18:11;;;;;;;4.78;2.40;;;;;;;10.62;58.46;98434.06;5063277;28;20111;-69
2021/05/06 14:20:37;;;;;;;6.88;2.50;;;;;;;10.64;57.73;98437.44;5063071;28;20183;-68
2021/05/06 14:23:04;;;;;;;6.05;2.78;;;;;;;10.44;55.49;98430.94;5063685;28;20598;-69
2021/05/06 14:25:29;;;;;;;6.85;3.20;;;;;;;10.32;57.90;98429.19;5064188;28;20031;-67
2021/05/06 14:27:55;;;;;;;16.27;3.40;;;;;;;10.27;55.93;98431.25;5070847;28;20024;-69
2021/05/06 14:30:21;;;;;;;7.15;2.75;;;;;;;10.24;56.39;98434.97;5084310;28;20056;-69
2021/05/06 14:32:46;;;;;;;5.40;3.33;;;;;;;10.20;56.20;98424.75;5085062;28;20032;-69
2021/05/06 14:35:11;;;;;;;11.20;3.20;;;;;;;10.18;59.78;98426.63;5085115;28;20141;-71
2021/05/06 14:37:37;;;;;;;8.98;3.15;;;;;;;10.09;57.16;98426.31;5070875;28;20402;-69
2021/05/06 14:40:04;;;;;;;8.27;3.80;;;;;;;10.06;58.50;98423.03;5063082;28;20044;-68
2021/05/06 14:42:29;;;;;;;7.03;4.03;;;;;;;10.00;58.98;98418.22;5065156;28;20036;-69
2021/05/06 14:44:55;;;;;;;10.25;3.80;;;;;;;9.98;58.62;98426.22;5064161;28;20568;-68
2021/05/06 14:47:20;;;;;;;9.48;3.10;;;;;;;10.02;59.02;98417.16;5064130;28;20040;-68
2021/05/06 14:49:46;;;;;;;9.38;2.83;;;;;;;10.02;58.21;98425.06;5063184;28;20039;-70
2021/05/06 14:52:11;;;;;;;6.13;3.03;;;;;;;10.00;56.44;98418.22;5063713;28;20118;-70
2021/05/06 14:54:36;;;;;;;6.28;2.92;;;;;;;9.97;57.18;98415.78;5065253;28;20437;-70
2021/05/06 14:57:04;;;;;;;4.18;2.58;;;;;;;9.95;60.30;98421.16;5065149;28;20032;-71
2021/05/06 14:59:29;;;;;;;5.32;3.33;;;;;;;9.85;59.48;98420.13;5060985;28;20029;-70
2021/05/06 15:01:55;;;;;;;6.15;2.90;;;;;;;9.82;59.06;98421.16;5027080;28;20033;-69